sensor_id;sensor_type;location;lat;lon;timestamp;temperature;humidity
15906;DHT22;8051;50.820;4.884;2023-10-19T00:02:08;15.80;99.90
15906;DHT22;8051;50.820;4.884;2023-10-19T00:04:39;15.90;99.90
15906;DHT22;8051;50.820;4.884;2023-10-19T00:07:06;15.90;99.90
15906;DHT22;8051;50.820;4.884;2023-10-19T00:09:36;15.90;99.90
15906;DHT22;8051;50.820;4.884;2023-10-19T00:12:04;15.90;99.90
15906;DHT22;8051;50.820;4.884;2023-10-19T00:14:34;15.90;99.90
15906;DHT22;8051;50.820;4.884;2023-10-19T00:17:01;15.80;99.90
15906;DHT22;8051;50.820;4.884;2023-10-19T00:19:33;15.80;99.90
15906;DHT22;8051;50.820;4.884;2023-10-19T00:22:06;15.90;99.90
15906;DHT22;8051;50.820;4.884;2023-10-19T00:24:47;15.80;99.90
15906;DHT22;8051;50.820;4.884;2023-10-19T00:27:16;15.80;99.90
15906;DHT22;8051;50.820;4.884;2023-10-19T00:29:45;15.80;99.90
15906;DHT22;8051;50.820;4.884;2023-10-19T00:32:16;15.80;99.90
15906;DHT22;8051;50.820;4.884;2023-10-19T00:34:45;15.80;99.90
15906;DHT22;8051;50.820;4.884;2023-10-19T00:37:19;15.70;99.90
15906;DHT22;8051;50.820;4.884;2023-10-19T00:39:53;15.70;99.90
15906;DHT22;8051;50.820;4.884;2023-10-19T00:42:22;15.70;99.90
15906;DHT22;8051;50.820;4.884;2023-10-19T00:44:57;15.70;99.90
15906;DHT22;8051;50.820;4.884;2023-10-19T00:47:30;15.70;99.90
15906;DHT22;8051;50.820;4.884;2023-10-19T00:50:06;15.70;99.90
15906;DHT22;8051;50.820;4.884;2023-10-19T00:52:42;15.80;99.90
15906;DHT22;8051;50.820;4.884;2023-10-19T00:55:16;15.70;99.90
15906;DHT22;8051;50.820;4.884;2023-10-19T00:57:45;15.70;99.90
15906;DHT22;8051;50.820;4.884;2023-10-19T01:00:15;15.70;99.90
15906;DHT22;8051;50.820;4.884;2023-10-19T01:02:57;15.60;99.90
15906;DHT22;8051;50.820;4.884;2023-10-19T01:05:30;15.70;99.90
15906;DHT22;8051;50.820;4.884;2023-10-19T01:08:03;15.60;99.90
15906;DHT22;8051;50.820;4.884;2023-10-19T01:10:43;15.60;99.90
15906;DHT22;8051;50.820;4.884;2023-10-19T01:13:12;15.60;99.90
15906;DHT22;8051;50.820;4.884;2023-10-19T01:15:42;15.60;99.90
15906;DHT22;8051;50.820;4.884;2023-10-19T01:18:15;15.60;99.90
15906;DHT22;8051;50.820;4.884;2023-10-19T01:20:42;15.60;99.90
15906;DHT22;8051;50.820;4.884;2023-10-19T01:23:18;15.60;99.90
15906;DHT22;8051;50.820;4.884;2023-10-19T01:25:53;15.60;99.90
15906;DHT22;8051;50.820;4.884;2023-10-19T01:28:33;15.60;99.90
15906;DHT22;8051;50.820;4.884;2023-10-19T01:31:14;15.60;99.90
15906;DHT22;8051;50.820;4.884;2023-10-19T01:33:43;15.50;99.90
15906;DHT22;8051;50.820;4.884;2023-10-19T01:36:12;15.50;99.90
15906;DHT22;8051;50.820;4.884;2023-10-19T01:38:42;15.50;99.90
15906;DHT22;8051;50.820;4.884;2023-10-19T01:41:09;15.50;99.90
15906;DHT22;8051;50.820;4.884;2023-10-19T01:43:45;15.50;99.90
15906;DHT22;8051;50.820;4.884;2023-10-19T01:46:14;15.50;99.90
15906;DHT22;8051;50.820;4.884;2023-10-19T01:48:48;15.50;99.90
15906;DHT22;8051;50.820;4.884;2023-10-19T01:51:21;15.50;99.90
15906;DHT22;8051;50.820;4.884;2023-10-19T01:53:50;15.40;99.90
15906;DHT22;8051;50.820;4.884;2023-10-19T01:56:18;15.40;99.90
15906;DHT22;8051;50.820;4.884;2023-10-19T01:58:46;15.40;99.90
15906;DHT22;8051;50.820;4.884;2023-10-19T02:01:14;15.40;99.90
15906;DHT22;8051;50.820;4.884;2023-10-19T02:03:47;15.40;99.90
15906;DHT22;8051;50.820;4.884;2023-10-19T02:06:19;15.40;99.90
15906;DHT22;8051;50.820;4.884;2023-10-19T02:08:48;15.40;99.90
15906;DHT22;8051;50.820;4.884;2023-10-19T02:11:19;15.40;99.90
15906;DHT22;8051;50.820;4.884;2023-10-19T02:13:48;15.40;99.90
15906;DHT22;8051;50.820;4.884;2023-10-19T02:16:16;15.40;99.90
15906;DHT22;8051;50.820;4.884;2023-10-19T02:18:42;15.40;99.90
15906;DHT22;8051;50.820;4.884;2023-10-19T02:21:10;15.40;99.90
15906;DHT22;8051;50.820;4.884;2023-10-19T02:23:39;15.40;99.90
15906;DHT22;8051;50.820;4.884;2023-10-19T02:26:08;15.40;99.90
15906;DHT22;8051;50.820;4.884;2023-10-19T02:28:35;15.40;99.90
15906;DHT22;8051;50.820;4.884;2023-10-19T02:31:05;15.40;99.90
15906;DHT22;8051;50.820;4.884;2023-10-19T02:33:42;15.40;99.90
15906;DHT22;8051;50.820;4.884;2023-10-19T02:36:16;15.40;99.90
15906;DHT22;8051;50.820;4.884;2023-10-19T02:38:45;15.40;99.90
15906;DHT22;8051;50.820;4.884;2023-10-19T02:41:18;15.30;99.90
15906;DHT22;8051;50.820;4.884;2023-10-19T02:43:47;15.30;99.90
15906;DHT22;8051;50.820;4.884;2023-10-19T02:46:17;15.20;99.90
15906;DHT22;8051;50.820;4.884;2023-10-19T02:48:43;15.20;99.90
15906;DHT22;8051;50.820;4.884;2023-10-19T02:51:11;15.20;99.90
15906;DHT22;8051;50.820;4.884;2023-10-19T02:53:39;15.10;99.90
15906;DHT22;8051;50.820;4.884;2023-10-19T02:56:10;15.10;99.90
15906;DHT22;8051;50.820;4.884;2023-10-19T02:58:40;15.00;99.90
15906;DHT22;8051;50.820;4.884;2023-10-19T03:01:16;15.00;99.90
15906;DHT22;8051;50.820;4.884;2023-10-19T03:03:49;15.00;99.90
15906;DHT22;8051;50.820;4.884;2023-10-19T03:06:21;14.90;99.90
15906;DHT22;8051;50.820;4.884;2023-10-19T03:08:48;14.90;99.90
15906;DHT22;8051;50.820;4.884;2023-10-19T03:11:23;14.80;99.90
15906;DHT22;8051;50.820;4.884;2023-10-19T03:13:51;14.70;99.90
15906;DHT22;8051;50.820;4.884;2023-10-19T03:16:21;14.50;99.90
15906;DHT22;8051;50.820;4.884;2023-10-19T03:18:47;14.50;99.90
15906;DHT22;8051;50.820;4.884;2023-10-19T03:21:16;14.40;99.90
15906;DHT22;8051;50.820;4.884;2023-10-19T03:23:43;14.30;99.90
15906;DHT22;8051;50.820;4.884;2023-10-19T03:26:10;14.20;99.90
15906;DHT22;8051;50.820;4.884;2023-10-19T03:28:53;14.20;99.90
15906;DHT22;8051;50.820;4.884;2023-10-19T03:31:24;14.10;99.90
15906;DHT22;8051;50.820;4.884;2023-10-19T03:33:52;14.10;99.90
15906;DHT22;8051;50.820;4.884;2023-10-19T03:36:25;14.00;99.90
15906;DHT22;8051;50.820;4.884;2023-10-19T03:38:53;14.10;99.90
15906;DHT22;8051;50.820;4.884;2023-10-19T03:41:21;14.10;99.90
15906;DHT22;8051;50.820;4.884;2023-10-19T03:43:52;14.10;99.90
15906;DHT22;8051;50.820;4.884;2023-10-19T03:46:20;14.10;99.90
15906;DHT22;8051;50.820;4.884;2023-10-19T03:48:56;14.20;99.90
15906;DHT22;8051;50.820;4.884;2023-10-19T03:51:36;14.20;99.90
15906;DHT22;8051;50.820;4.884;2023-10-19T03:54:24;14.30;99.90
15906;DHT22;8051;50.820;4.884;2023-10-19T03:56:53;14.40;99.90
15906;DHT22;8051;50.820;4.884;2023-10-19T03:59:21;14.40;99.90
15906;DHT22;8051;50.820;4.884;2023-10-19T04:01:49;14.50;99.90
15906;DHT22;8051;50.820;4.884;2023-10-19T04:04:18;14.50;99.90
15906;DHT22;8051;50.820;4.884;2023-10-19T04:06:46;14.50;99.90
15906;DHT22;8051;50.820;4.884;2023-10-19T04:09:15;14.60;99.90
15906;DHT22;8051;50.820;4.884;2023-10-19T04:11:44;14.60;99.90
15906;DHT22;8051;50.820;4.884;2023-10-19T04:14:22;14.70;99.90
15906;DHT22;8051;50.820;4.884;2023-10-19T04:16:49;14.70;99.90
15906;DHT22;8051;50.820;4.884;2023-10-19T04:19:18;14.70;99.90
15906;DHT22;8051;50.820;4.884;2023-10-19T04:21:46;14.70;99.90
15906;DHT22;8051;50.820;4.884;2023-10-19T04:24:16;14.70;99.90
15906;DHT22;8051;50.820;4.884;2023-10-19T04:26:45;14.70;99.90
15906;DHT22;8051;50.820;4.884;2023-10-19T04:29:14;14.80;99.90
15906;DHT22;8051;50.820;4.884;2023-10-19T04:31:45;14.80;99.90
15906;DHT22;8051;50.820;4.884;2023-10-19T04:34:21;14.80;99.90
15906;DHT22;8051;50.820;4.884;2023-10-19T04:36:50;14.80;99.90
15906;DHT22;8051;50.820;4.884;2023-10-19T04:39:18;14.80;99.90
15906;DHT22;8051;50.820;4.884;2023-10-19T04:41:46;14.80;99.90
15906;DHT22;8051;50.820;4.884;2023-10-19T04:44:15;14.80;99.90
15906;DHT22;8051;50.820;4.884;2023-10-19T04:46:43;14.80;99.90
15906;DHT22;8051;50.820;4.884;2023-10-19T04:49:11;14.80;99.90
15906;DHT22;8051;50.820;4.884;2023-10-19T04:51:40;14.80;99.90
15906;DHT22;8051;50.820;4.884;2023-10-19T04:54:09;14.80;99.90
15906;DHT22;8051;50.820;4.884;2023-10-19T04:56:37;14.80;99.90
15906;DHT22;8051;50.820;4.884;2023-10-19T04:59:04;14.90;99.90
15906;DHT22;8051;50.820;4.884;2023-10-19T05:01:32;14.90;99.90
15906;DHT22;8051;50.820;4.884;2023-10-19T05:04:00;14.90;99.90
15906;DHT22;8051;50.820;4.884;2023-10-19T05:06:27;14.90;99.90
15906;DHT22;8051;50.820;4.884;2023-10-19T05:08:56;14.90;99.90
15906;DHT22;8051;50.820;4.884;2023-10-19T05:11:24;15.00;99.90
15906;DHT22;8051;50.820;4.884;2023-10-19T05:13:51;15.00;99.90
15906;DHT22;8051;50.820;4.884;2023-10-19T05:16:19;15.00;99.90
15906;DHT22;8051;50.820;4.884;2023-10-19T05:18:46;15.00;99.90
15906;DHT22;8051;50.820;4.884;2023-10-19T05:21:14;15.00;99.90
15906;DHT22;8051;50.820;4.884;2023-10-19T05:23:41;15.00;99.90
15906;DHT22;8051;50.820;4.884;2023-10-19T05:26:09;15.00;99.90
15906;DHT22;8051;50.820;4.884;2023-10-19T05:28:38;14.90;99.90
15906;DHT22;8051;50.820;4.884;2023-10-19T05:31:08;15.00;99.90
15906;DHT22;8051;50.820;4.884;2023-10-19T05:33:37;15.00;99.90
15906;DHT22;8051;50.820;4.884;2023-10-19T05:36:05;15.00;99.90
15906;DHT22;8051;50.820;4.884;2023-10-19T05:38:33;15.00;99.90
15906;DHT22;8051;50.820;4.884;2023-10-19T05:41:01;15.00;99.90
15906;DHT22;8051;50.820;4.884;2023-10-19T05:43:30;15.00;99.90
15906;DHT22;8051;50.820;4.884;2023-10-19T05:45:59;15.00;99.90
15906;DHT22;8051;50.820;4.884;2023-10-19T05:48:27;15.00;99.90
15906;DHT22;8051;50.820;4.884;2023-10-19T05:50:54;15.00;99.90
15906;DHT22;8051;50.820;4.884;2023-10-19T05:53:22;15.00;99.90
15906;DHT22;8051;50.820;4.884;2023-10-19T05:55:49;14.90;99.90
15906;DHT22;8051;50.820;4.884;2023-10-19T05:58:17;14.90;99.90
15906;DHT22;8051;50.820;4.884;2023-10-19T06:00:47;14.90;99.90
15906;DHT22;8051;50.820;4.884;2023-10-19T06:03:17;14.90;99.90
15906;DHT22;8051;50.820;4.884;2023-10-19T06:05:45;14.90;99.90
15906;DHT22;8051;50.820;4.884;2023-10-19T06:08:13;14.80;99.90
15906;DHT22;8051;50.820;4.884;2023-10-19T06:10:40;14.90;99.90
15906;DHT22;8051;50.820;4.884;2023-10-19T06:13:08;14.80;99.90
15906;DHT22;8051;50.820;4.884;2023-10-19T06:15:36;14.80;99.90
15906;DHT22;8051;50.820;4.884;2023-10-19T06:18:05;14.80;99.90
15906;DHT22;8051;50.820;4.884;2023-10-19T06:20:33;14.80;99.90
15906;DHT22;8051;50.820;4.884;2023-10-19T06:23:02;14.80;99.90
15906;DHT22;8051;50.820;4.884;2023-10-19T06:25:32;14.80;99.90
15906;DHT22;8051;50.820;4.884;2023-10-19T06:28:00;14.80;99.90
15906;DHT22;8051;50.820;4.884;2023-10-19T06:30:28;14.80;99.90
15906;DHT22;8051;50.820;4.884;2023-10-19T06:32:57;14.80;99.90
15906;DHT22;8051;50.820;4.884;2023-10-19T06:35:28;14.80;99.90
15906;DHT22;8051;50.820;4.884;2023-10-19T06:37:58;14.70;99.90
15906;DHT22;8051;50.820;4.884;2023-10-19T06:40:26;14.80;99.90
15906;DHT22;8051;50.820;4.884;2023-10-19T06:42:55;14.70;99.90
15906;DHT22;8051;50.820;4.884;2023-10-19T06:45:31;14.70;99.90
15906;DHT22;8051;50.820;4.884;2023-10-19T06:47:59;14.70;99.90
15906;DHT22;8051;50.820;4.884;2023-10-19T06:50:28;14.70;99.90
15906;DHT22;8051;50.820;4.884;2023-10-19T06:52:57;14.70;99.90
15906;DHT22;8051;50.820;4.884;2023-10-19T06:55:25;14.60;99.90
15906;DHT22;8051;50.820;4.884;2023-10-19T06:57:54;14.60;99.90
15906;DHT22;8051;50.820;4.884;2023-10-19T07:00:23;14.60;99.90
15906;DHT22;8051;50.820;4.884;2023-10-19T07:02:53;14.50;99.90
15906;DHT22;8051;50.820;4.884;2023-10-19T07:05:22;14.50;99.90
15906;DHT22;8051;50.820;4.884;2023-10-19T07:07:52;14.50;99.90
15906;DHT22;8051;50.820;4.884;2023-10-19T07:10:20;14.50;99.90
15906;DHT22;8051;50.820;4.884;2023-10-19T07:12:50;14.50;99.90
15906;DHT22;8051;50.820;4.884;2023-10-19T07:15:19;14.50;99.90
15906;DHT22;8051;50.820;4.884;2023-10-19T07:17:48;14.50;99.90
15906;DHT22;8051;50.820;4.884;2023-10-19T07:20:18;14.60;99.90
15906;DHT22;8051;50.820;4.884;2023-10-19T07:22:52;14.70;99.90
15906;DHT22;8051;50.820;4.884;2023-10-19T07:25:20;14.90;99.90
15906;DHT22;8051;50.820;4.884;2023-10-19T07:27:48;14.90;99.90
15906;DHT22;8051;50.820;4.884;2023-10-19T07:30:17;14.90;99.90
15906;DHT22;8051;50.820;4.884;2023-10-19T07:32:48;14.80;99.90
15906;DHT22;8051;50.820;4.884;2023-10-19T07:35:20;14.80;99.90
15906;DHT22;8051;50.820;4.884;2023-10-19T07:37:48;14.80;99.90
15906;DHT22;8051;50.820;4.884;2023-10-19T07:40:17;14.90;99.90
15906;DHT22;8051;50.820;4.884;2023-10-19T07:42:45;15.00;99.90
15906;DHT22;8051;50.820;4.884;2023-10-19T07:45:15;15.00;99.90
15906;DHT22;8051;50.820;4.884;2023-10-19T07:47:42;15.20;99.90
15906;DHT22;8051;50.820;4.884;2023-10-19T07:50:11;15.40;99.90
15906;DHT22;8051;50.820;4.884;2023-10-19T07:52:42;15.60;99.90
15906;DHT22;8051;50.820;4.884;2023-10-19T07:55:10;15.70;99.90
15906;DHT22;8051;50.820;4.884;2023-10-19T07:57:39;15.80;99.90
15906;DHT22;8051;50.820;4.884;2023-10-19T08:00:08;15.90;99.90
15906;DHT22;8051;50.820;4.884;2023-10-19T08:02:38;16.00;99.90
15906;DHT22;8051;50.820;4.884;2023-10-19T08:05:07;16.00;99.90
15906;DHT22;8051;50.820;4.884;2023-10-19T08:07:37;16.10;99.90
15906;DHT22;8051;50.820;4.884;2023-10-19T08:10:08;16.10;99.90
15906;DHT22;8051;50.820;4.884;2023-10-19T08:12:36;16.10;99.90
15906;DHT22;8051;50.820;4.884;2023-10-19T08:15:06;16.20;99.90
15906;DHT22;8051;50.820;4.884;2023-10-19T08:17:33;16.20;99.90
15906;DHT22;8051;50.820;4.884;2023-10-19T08:20:01;16.20;99.90
15906;DHT22;8051;50.820;4.884;2023-10-19T08:22:29;16.20;99.90
15906;DHT22;8051;50.820;4.884;2023-10-19T08:24:57;16.30;99.90
15906;DHT22;8051;50.820;4.884;2023-10-19T08:27:24;16.30;99.90
15906;DHT22;8051;50.820;4.884;2023-10-19T08:29:52;16.30;99.90
15906;DHT22;8051;50.820;4.884;2023-10-19T08:32:23;16.30;99.90
15906;DHT22;8051;50.820;4.884;2023-10-19T08:34:50;16.40;99.90
15906;DHT22;8051;50.820;4.884;2023-10-19T08:37:18;16.30;99.90
15906;DHT22;8051;50.820;4.884;2023-10-19T08:39:45;16.30;99.90
15906;DHT22;8051;50.820;4.884;2023-10-19T08:42:13;16.30;99.90
15906;DHT22;8051;50.820;4.884;2023-10-19T08:44:40;16.40;99.90
15906;DHT22;8051;50.820;4.884;2023-10-19T08:47:08;16.40;99.90
15906;DHT22;8051;50.820;4.884;2023-10-19T08:49:37;16.40;99.90
15906;DHT22;8051;50.820;4.884;2023-10-19T08:52:05;16.50;99.90
15906;DHT22;8051;50.820;4.884;2023-10-19T08:54:33;16.50;99.90
15906;DHT22;8051;50.820;4.884;2023-10-19T08:57:00;16.50;99.90
15906;DHT22;8051;50.820;4.884;2023-10-19T08:59:28;16.60;99.90
15906;DHT22;8051;50.820;4.884;2023-10-19T09:02:00;16.60;99.90
15906;DHT22;8051;50.820;4.884;2023-10-19T09:04:28;16.70;99.90
15906;DHT22;8051;50.820;4.884;2023-10-19T09:06:57;16.70;99.90
15906;DHT22;8051;50.820;4.884;2023-10-19T09:09:28;16.80;99.90
15906;DHT22;8051;50.820;4.884;2023-10-19T09:11:58;16.90;99.90
15906;DHT22;8051;50.820;4.884;2023-10-19T09:14:36;17.10;99.90
15906;DHT22;8051;50.820;4.884;2023-10-19T09:17:07;17.10;99.90
15906;DHT22;8051;50.820;4.884;2023-10-19T09:19:39;17.30;99.90
15906;DHT22;8051;50.820;4.884;2023-10-19T09:22:09;17.20;99.90
15906;DHT22;8051;50.820;4.884;2023-10-19T09:24:44;17.20;99.90
15906;DHT22;8051;50.820;4.884;2023-10-19T09:27:12;17.20;99.90
15906;DHT22;8051;50.820;4.884;2023-10-19T09:29:41;17.20;99.90
15906;DHT22;8051;50.820;4.884;2023-10-19T09:32:09;17.20;99.90
15906;DHT22;8051;50.820;4.884;2023-10-19T09:34:39;17.20;99.90
15906;DHT22;8051;50.820;4.884;2023-10-19T09:37:11;17.20;99.90
15906;DHT22;8051;50.820;4.884;2023-10-19T09:39:38;17.20;99.90
15906;DHT22;8051;50.820;4.884;2023-10-19T09:42:10;17.30;99.90
15906;DHT22;8051;50.820;4.884;2023-10-19T09:44:43;17.30;99.90
15906;DHT22;8051;50.820;4.884;2023-10-19T09:47:12;17.40;99.90
15906;DHT22;8051;50.820;4.884;2023-10-19T09:49:41;17.40;99.90
15906;DHT22;8051;50.820;4.884;2023-10-19T09:52:11;17.40;99.90
15906;DHT22;8051;50.820;4.884;2023-10-19T09:54:50;17.60;99.90
15906;DHT22;8051;50.820;4.884;2023-10-19T09:57:25;17.70;99.90
15906;DHT22;8051;50.820;4.884;2023-10-19T10:00:00;17.80;99.90
15906;DHT22;8051;50.820;4.884;2023-10-19T10:02:35;17.90;99.90
15906;DHT22;8051;50.820;4.884;2023-10-19T10:05:03;17.90;99.90
15906;DHT22;8051;50.820;4.884;2023-10-19T10:07:33;17.90;99.90
15906;DHT22;8051;50.820;4.884;2023-10-19T10:10:02;17.90;99.90
15906;DHT22;8051;50.820;4.884;2023-10-19T10:12:30;17.80;99.90
15906;DHT22;8051;50.820;4.884;2023-10-19T10:15:01;17.80;99.90
15906;DHT22;8051;50.820;4.884;2023-10-19T10:17:34;17.70;99.90
15906;DHT22;8051;50.820;4.884;2023-10-19T10:20:30;17.70;99.90
15906;DHT22;8051;50.820;4.884;2023-10-19T10:23:20;17.80;99.90
15906;DHT22;8051;50.820;4.884;2023-10-19T10:25:50;18.00;99.90
15906;DHT22;8051;50.820;4.884;2023-10-19T10:28:19;18.10;99.90
15906;DHT22;8051;50.820;4.884;2023-10-19T10:31:08;18.30;99.90
15906;DHT22;8051;50.820;4.884;2023-10-19T10:33:40;18.40;99.90
15906;DHT22;8051;50.820;4.884;2023-10-19T10:36:08;18.50;99.90
15906;DHT22;8051;50.820;4.884;2023-10-19T10:38:38;18.80;99.90
15906;DHT22;8051;50.820;4.884;2023-10-19T10:41:06;18.90;99.90
15906;DHT22;8051;50.820;4.884;2023-10-19T10:43:50;19.10;99.90
15906;DHT22;8051;50.820;4.884;2023-10-19T10:46:19;19.20;99.90
15906;DHT22;8051;50.820;4.884;2023-10-19T10:48:47;19.20;99.90
15906;DHT22;8051;50.820;4.884;2023-10-19T10:51:19;19.30;99.90
15906;DHT22;8051;50.820;4.884;2023-10-19T10:53:53;19.40;99.90
15906;DHT22;8051;50.820;4.884;2023-10-19T10:56:22;19.50;99.90
15906;DHT22;8051;50.820;4.884;2023-10-19T10:58:50;19.60;99.90
15906;DHT22;8051;50.820;4.884;2023-10-19T11:01:28;19.50;99.90
15906;DHT22;8051;50.820;4.884;2023-10-19T11:04:06;19.20;99.90
15906;DHT22;8051;50.820;4.884;2023-10-19T11:06:45;19.00;99.90
15906;DHT22;8051;50.820;4.884;2023-10-19T11:09:14;18.90;99.90
15906;DHT22;8051;50.820;4.884;2023-10-19T11:11:44;18.60;99.90
15906;DHT22;8051;50.820;4.884;2023-10-19T11:14:12;18.30;99.90
15906;DHT22;8051;50.820;4.884;2023-10-19T11:16:39;18.00;99.90
15906;DHT22;8051;50.820;4.884;2023-10-19T11:19:07;17.80;99.90
15906;DHT22;8051;50.820;4.884;2023-10-19T11:21:36;17.60;99.90
15906;DHT22;8051;50.820;4.884;2023-10-19T11:24:04;17.40;99.90
15906;DHT22;8051;50.820;4.884;2023-10-19T11:26:40;17.20;99.90
15906;DHT22;8051;50.820;4.884;2023-10-19T11:29:07;17.10;99.90
15906;DHT22;8051;50.820;4.884;2023-10-19T11:31:36;16.90;99.90
15906;DHT22;8051;50.820;4.884;2023-10-19T11:34:06;16.80;99.90
15906;DHT22;8051;50.820;4.884;2023-10-19T11:36:34;16.70;99.90
15906;DHT22;8051;50.820;4.884;2023-10-19T11:39:02;16.60;99.90
15906;DHT22;8051;50.820;4.884;2023-10-19T11:41:30;16.50;99.90
15906;DHT22;8051;50.820;4.884;2023-10-19T11:43:59;16.50;99.90
15906;DHT22;8051;50.820;4.884;2023-10-19T11:46:26;16.50;99.90
15906;DHT22;8051;50.820;4.884;2023-10-19T11:48:55;16.50;99.90
15906;DHT22;8051;50.820;4.884;2023-10-19T11:51:22;16.50;99.90
15906;DHT22;8051;50.820;4.884;2023-10-19T11:53:50;16.50;99.90
15906;DHT22;8051;50.820;4.884;2023-10-19T11:56:17;16.50;99.90
15906;DHT22;8051;50.820;4.884;2023-10-19T11:58:46;16.50;99.90
15906;DHT22;8051;50.820;4.884;2023-10-19T12:01:15;16.60;99.90
15906;DHT22;8051;50.820;4.884;2023-10-19T12:03:43;16.60;99.90
15906;DHT22;8051;50.820;4.884;2023-10-19T12:06:11;16.60;99.90
15906;DHT22;8051;50.820;4.884;2023-10-19T12:08:44;16.50;99.90
15906;DHT22;8051;50.820;4.884;2023-10-19T12:11:12;16.50;99.90
15906;DHT22;8051;50.820;4.884;2023-10-19T12:13:43;16.50;99.90
15906;DHT22;8051;50.820;4.884;2023-10-19T12:16:10;16.40;99.90
15906;DHT22;8051;50.820;4.884;2023-10-19T12:18:40;16.40;99.90
15906;DHT22;8051;50.820;4.884;2023-10-19T12:21:08;16.40;99.90
15906;DHT22;8051;50.820;4.884;2023-10-19T12:23:39;16.40;99.90
15906;DHT22;8051;50.820;4.884;2023-10-19T12:26:06;16.30;99.90
15906;DHT22;8051;50.820;4.884;2023-10-19T12:28:37;16.20;99.90
15906;DHT22;8051;50.820;4.884;2023-10-19T12:31:05;16.20;99.90
15906;DHT22;8051;50.820;4.884;2023-10-19T12:33:34;16.10;99.90
15906;DHT22;8051;50.820;4.884;2023-10-19T12:36:04;16.10;99.90
15906;DHT22;8051;50.820;4.884;2023-10-19T12:38:49;16.00;99.90
15906;DHT22;8051;50.820;4.884;2023-10-19T12:41:17;16.00;99.90
15906;DHT22;8051;50.820;4.884;2023-10-19T12:43:44;16.00;99.90
15906;DHT22;8051;50.820;4.884;2023-10-19T12:46:13;16.10;99.90
15906;DHT22;8051;50.820;4.884;2023-10-19T12:48:41;16.10;99.90
15906;DHT22;8051;50.820;4.884;2023-10-19T12:51:10;16.20;99.90
15906;DHT22;8051;50.820;4.884;2023-10-19T12:53:39;16.40;99.90
15906;DHT22;8051;50.820;4.884;2023-10-19T12:56:07;16.50;99.90
15906;DHT22;8051;50.820;4.884;2023-10-19T12:58:37;16.80;99.90
15906;DHT22;8051;50.820;4.884;2023-10-19T13:01:04;16.90;99.90
15906;DHT22;8051;50.820;4.884;2023-10-19T13:03:32;17.00;99.90
15906;DHT22;8051;50.820;4.884;2023-10-19T13:06:02;17.10;99.90
15906;DHT22;8051;50.820;4.884;2023-10-19T13:08:34;17.20;99.90
15906;DHT22;8051;50.820;4.884;2023-10-19T13:11:03;17.40;99.90
15906;DHT22;8051;50.820;4.884;2023-10-19T13:13:31;17.50;99.90
15906;DHT22;8051;50.820;4.884;2023-10-19T13:15:59;17.70;99.90
15906;DHT22;8051;50.820;4.884;2023-10-19T13:18:26;17.80;99.90
15906;DHT22;8051;50.820;4.884;2023-10-19T13:20:55;18.00;99.90
15906;DHT22;8051;50.820;4.884;2023-10-19T13:23:23;18.20;99.90
15906;DHT22;8051;50.820;4.884;2023-10-19T13:25:52;18.30;99.90
15906;DHT22;8051;50.820;4.884;2023-10-19T13:28:23;18.30;99.90
15906;DHT22;8051;50.820;4.884;2023-10-19T13:30:53;18.20;99.90
15906;DHT22;8051;50.820;4.884;2023-10-19T13:33:21;18.10;99.90
15906;DHT22;8051;50.820;4.884;2023-10-19T13:35:50;18.00;99.90
15906;DHT22;8051;50.820;4.884;2023-10-19T13:38:18;18.00;99.90
15906;DHT22;8051;50.820;4.884;2023-10-19T13:40:47;17.90;99.90
15906;DHT22;8051;50.820;4.884;2023-10-19T13:43:17;17.90;99.90
15906;DHT22;8051;50.820;4.884;2023-10-19T13:45:47;18.00;99.90
15906;DHT22;8051;50.820;4.884;2023-10-19T13:48:15;18.00;99.90
15906;DHT22;8051;50.820;4.884;2023-10-19T13:50:44;18.00;99.90
15906;DHT22;8051;50.820;4.884;2023-10-19T13:53:14;18.00;99.90
15906;DHT22;8051;50.820;4.884;2023-10-19T13:55:41;17.90;99.90
15906;DHT22;8051;50.820;4.884;2023-10-19T13:58:09;17.80;99.90
15906;DHT22;8051;50.820;4.884;2023-10-19T14:00:41;17.80;99.90
15906;DHT22;8051;50.820;4.884;2023-10-19T14:03:09;17.80;99.90
15906;DHT22;8051;50.820;4.884;2023-10-19T14:05:40;18.00;99.90
15906;DHT22;8051;50.820;4.884;2023-10-19T14:08:09;18.20;99.90
15906;DHT22;8051;50.820;4.884;2023-10-19T14:10:36;18.30;99.90
15906;DHT22;8051;50.820;4.884;2023-10-19T14:13:07;18.30;99.90
15906;DHT22;8051;50.820;4.884;2023-10-19T14:15:35;18.40;99.90
15906;DHT22;8051;50.820;4.884;2023-10-19T14:18:06;18.60;99.90
15906;DHT22;8051;50.820;4.884;2023-10-19T14:20:33;18.70;99.90
15906;DHT22;8051;50.820;4.884;2023-10-19T14:23:02;18.90;99.90
15906;DHT22;8051;50.820;4.884;2023-10-19T14:25:30;19.00;99.90
15906;DHT22;8051;50.820;4.884;2023-10-19T14:27:58;19.00;99.90
15906;DHT22;8051;50.820;4.884;2023-10-19T14:30:27;19.00;99.90
15906;DHT22;8051;50.820;4.884;2023-10-19T14:32:55;19.10;99.90
15906;DHT22;8051;50.820;4.884;2023-10-19T14:35:25;19.10;99.90
15906;DHT22;8051;50.820;4.884;2023-10-19T14:37:53;19.10;99.90
15906;DHT22;8051;50.820;4.884;2023-10-19T14:40:23;19.10;99.90
15906;DHT22;8051;50.820;4.884;2023-10-19T14:42:51;19.00;99.90
15906;DHT22;8051;50.820;4.884;2023-10-19T14:45:21;19.00;99.90
15906;DHT22;8051;50.820;4.884;2023-10-19T14:47:52;18.90;99.90
15906;DHT22;8051;50.820;4.884;2023-10-19T14:50:21;18.90;99.90
15906;DHT22;8051;50.820;4.884;2023-10-19T14:52:52;18.90;99.90
15906;DHT22;8051;50.820;4.884;2023-10-19T14:55:21;18.90;99.90
15906;DHT22;8051;50.820;4.884;2023-10-19T14:57:49;18.80;99.90
15906;DHT22;8051;50.820;4.884;2023-10-19T15:00:20;18.80;99.90
15906;DHT22;8051;50.820;4.884;2023-10-19T15:02:59;18.60;99.90
15906;DHT22;8051;50.820;4.884;2023-10-19T15:05:28;18.50;99.90
15906;DHT22;8051;50.820;4.884;2023-10-19T15:07:57;18.40;99.90
15906;DHT22;8051;50.820;4.884;2023-10-19T15:10:25;18.40;99.90
15906;DHT22;8051;50.820;4.884;2023-10-19T15:12:54;18.30;99.90
15906;DHT22;8051;50.820;4.884;2023-10-19T15:15:22;18.20;99.90
15906;DHT22;8051;50.820;4.884;2023-10-19T15:17:50;18.10;99.90
15906;DHT22;8051;50.820;4.884;2023-10-19T15:20:19;18.00;99.90
15906;DHT22;8051;50.820;4.884;2023-10-19T15:22:47;17.80;99.90
15906;DHT22;8051;50.820;4.884;2023-10-19T15:25:17;17.80;99.90
15906;DHT22;8051;50.820;4.884;2023-10-19T15:27:46;17.80;99.90
15906;DHT22;8051;50.820;4.884;2023-10-19T15:30:14;17.70;99.90
15906;DHT22;8051;50.820;4.884;2023-10-19T15:32:44;17.70;99.90
15906;DHT22;8051;50.820;4.884;2023-10-19T15:35:13;17.70;99.90
15906;DHT22;8051;50.820;4.884;2023-10-19T15:37:45;17.70;99.90
15906;DHT22;8051;50.820;4.884;2023-10-19T15:40:16;17.70;99.90
15906;DHT22;8051;50.820;4.884;2023-10-19T15:42:45;17.70;99.90
15906;DHT22;8051;50.820;4.884;2023-10-19T15:45:14;17.70;99.90
15906;DHT22;8051;50.820;4.884;2023-10-19T15:47:44;17.70;99.90
15906;DHT22;8051;50.820;4.884;2023-10-19T15:50:12;17.70;99.90
15906;DHT22;8051;50.820;4.884;2023-10-19T15:52:40;17.70;99.90
15906;DHT22;8051;50.820;4.884;2023-10-19T15:55:09;17.60;99.90
15906;DHT22;8051;50.820;4.884;2023-10-19T15:57:39;17.60;99.90
15906;DHT22;8051;50.820;4.884;2023-10-19T16:00:09;17.60;99.90
15906;DHT22;8051;50.820;4.884;2023-10-19T16:02:39;17.50;99.90